Time;durP1;ratioP1;P1;durP2;ratioP2;P2;SDS_P1;SDS_P2;PMS_P1;PMS_P2;Temp;Humidity;BMP_temperature;BMP_pressure;BME280_temperature;BME280_humidity;BME280_pressure;Samples;Min_cycle;Max_cycle;Signal;HPM_P1;HPM_P2
2024/02/13 00:00:38;;;;;;;3.20;1.57;;;;;17.70;100274.00;;;;2068491;28;24695;-58
2024/02/13 00:01:41;;;;;;;2.73;1.30;;;;;17.70;100274.00;;;;2060893;28;20238;-58
2024/02/13 00:02:41;;;;;;;2.90;1.10;;;;;17.70;100277.00;;;;2058273;28;20300;-57
2024/02/13 00:03:42;;;;;;;1.93;1.00;;;;;17.70;100276.00;;;;2064829;28;20713;-62
2024/02/13 00:04:42;;;;;;;2.67;1.00;;;;;17.70;100271.00;;;;2063175;28;20231;-62
2024/02/13 00:05:45;;;;;;;3.53;1.20;;;;;17.70;100278.00;;;;2072881;28;20285;-60
2024/02/13 00:06:46;;;;;;;2.35;1.25;;;;;17.70;100277.00;;;;2076748;28;20228;-57
2024/02/13 00:07:46;;;;;;;3.13;1.40;;;;;17.70;100279.00;;;;2060444;28;20229;-60
2024/02/13 00:08:47;;;;;;;1.90;1.10;;;;;17.70;100276.00;;;;2056473;28;20278;-60
2024/02/13 00:09:48;;;;;;;3.40;1.40;;;;;17.70;100282.00;;;;2058991;28;20222;-59
2024/02/13 00:10:49;;;;;;;3.70;1.40;;;;;17.70;100286.00;;;;2069860;28;20216;-58
2024/02/13 00:11:50;;;;;;;2.37;1.10;;;;;17.70;100277.00;;;;2077649;28;20301;-57
2024/02/13 00:12:51;;;;;;;2.92;1.33;;;;;17.70;100284.00;;;;2062619;28;20229;-59
2024/02/13 00:13:51;;;;;;;3.13;1.20;;;;;17.70;100278.00;;;;2072889;28;20677;-58
2024/02/13 00:14:52;;;;;;;2.97;1.33;;;;;17.70;100281.00;;;;2055479;28;20230;-63
2024/02/13 00:15:54;;;;;;;2.30;1.20;;;;;17.70;100281.00;;;;2057540;28;20217;-58
2024/02/13 00:16:54;;;;;;;2.00;1.00;;;;;17.70;100284.00;;;;2061197;28;20224;-60
2024/02/13 00:17:54;;;;;;;2.40;1.37;;;;;17.70;100280.00;;;;2071451;28;20646;-64
2024/02/13 00:19:01;;;;;;;2.77;1.23;;;;;17.70;100276.00;;;;2073376;28;20217;-60
2024/02/13 00:20:04;;;;;;;2.25;1.02;;;;;17.70;100285.00;;;;2061047;28;20278;-58
2024/02/13 00:21:05;;;;;;;2.97;1.58;;;;;17.70;100285.00;;;;2063629;28;20280;-57
2024/02/13 00:22:05;;;;;;;2.50;1.10;;;;;17.70;100296.00;;;;2055238;28;20345;-57
2024/02/13 00:23:07;;;;;;;3.27;1.40;;;;;17.70;100293.00;;;;2067926;28;20930;-56
2024/02/13 00:24:08;;;;;;;2.90;1.45;;;;;17.70;100289.00;;;;2065905;28;20720;-58
2024/02/13 00:25:09;;;;;;;3.00;1.13;;;;;17.70;100225.00;;;;2052883;28;20232;-58
2024/02/13 00:26:10;;;;;;;4.40;1.40;;;;;17.70;100286.00;;;;2059567;28;20223;-60
2024/02/13 00:27:10;;;;;;;2.50;1.20;;;;;17.60;100289.00;;;;2038122;28;20215;-57
2024/02/13 00:28:11;;;;;;;3.00;1.60;;;;;17.60;100289.00;;;;2066396;28;20650;-58
2024/02/13 00:29:11;;;;;;;2.50;1.07;;;;;17.70;100297.00;;;;2066617;28;20611;-62
2024/02/13 00:30:12;;;;;;;2.20;1.00;;;;;17.70;100288.00;;;;2065579;28;20259;-60
2024/02/13 00:31:12;;;;;;;2.47;1.23;;;;;17.70;100286.00;;;;2069749;28;20221;-63
2024/02/13 00:32:12;;;;;;;2.50;1.10;;;;;17.70;100294.00;;;;2068876;28;20266;-58
2024/02/13 00:33:13;;;;;;;2.50;1.27;;;;;17.70;100291.00;;;;2071673;28;20212;-57
2024/02/13 00:34:13;;;;;;;2.43;1.20;;;;;17.70;100293.00;;;;2064635;28;20225;-62
2024/02/13 00:35:14;;;;;;;4.33;1.90;;;;;17.60;100302.00;;;;2064350;28;20223;-59
2024/02/13 00:36:17;;;;;;;2.80;1.90;;;;;17.60;100296.00;;;;2064163;28;20324;-57
2024/02/13 00:37:17;;;;;;;2.67;1.35;;;;;17.60;100302.00;;;;2067097;28;20213;-58
2024/02/13 00:38:18;;;;;;;2.20;1.20;;;;;17.50;100294.00;;;;2067584;28;20217;-60
2024/02/13 00:39:19;;;;;;;3.33;1.60;;;;;17.60;100303.00;;;;2061579;28;20225;-61
2024/02/13 00:40:20;;;;;;;2.63;1.43;;;;;17.60;100304.00;;;;2058599;28;20232;-58
2024/02/13 00:41:21;;;;;;;2.60;1.17;;;;;17.60;100301.00;;;;2055667;28;20221;-56
2024/02/13 00:42:21;;;;;;;2.73;1.40;;;;;17.60;100309.00;;;;2077563;28;20224;-55
2024/02/13 00:43:22;;;;;;;2.90;1.33;;;;;17.70;100298.00;;;;2072571;28;20633;-56
2024/02/13 00:44:24;;;;;;;2.40;1.30;;;;;17.60;100315.00;;;;2061684;28;20259;-60
2024/02/13 00:45:24;;;;;;;2.85;1.42;;;;;17.60;100310.00;;;;2065008;28;20235;-63
2024/02/13 00:46:24;;;;;;;3.67;1.50;;;;;17.60;100311.00;;;;2062420;28;20255;-58
2024/02/13 00:47:25;;;;;;;2.77;1.47;;;;;17.60;100309.00;;;;2076350;28;20223;-59
2024/02/13 00:48:26;;;;;;;2.60;1.20;;;;;17.60;100311.00;;;;2059724;28;20284;-59
2024/02/13 00:49:28;;;;;;;3.33;1.35;;;;;17.60;100318.00;;;;2059879;28;20303;-62
2024/02/13 00:50:28;;;;;;;3.10;1.30;;;;;17.60;100309.00;;;;2071207;28;20263;-61
2024/02/13 00:51:29;;;;;;;2.33;1.10;;;;;17.60;100322.00;;;;2068101;28;20285;-58
2024/02/13 00:52:29;;;;;;;3.23;1.27;;;;;17.60;100324.00;;;;2077879;28;20232;-58
2024/02/13 00:53:29;;;;;;;2.57;1.20;;;;;17.60;100313.00;;;;2065726;28;20686;-56
2024/02/13 00:54:30;;;;;;;5.33;1.30;;;;;17.60;100323.00;;;;2051215;28;20777;-57
2024/02/13 00:55:31;;;;;;;2.40;1.40;;;;;17.60;100321.00;;;;2062627;28;20765;-59
2024/02/13 00:56:31;;;;;;;3.00;1.60;;;;;17.60;100320.00;;;;2075425;28;20274;-58
2024/02/13 00:57:31;;;;;;;2.67;1.43;;;;;17.60;100322.00;;;;2068519;28;20306;-58
2024/02/13 00:58:34;;;;;;;2.50;1.00;;;;;17.60;100325.00;;;;2062422;28;20252;-61
2024/02/13 00:59:34;;;;;;;3.17;1.55;;;;;17.60;100321.00;;;;2059066;28;20217;-60
2024/02/13 01:00:34;;;;;;;3.13;1.50;;;;;17.60;100361.00;;;;2065286;28;20298;-57
2024/02/13 01:01:35;;;;;;;3.47;1.33;;;;;17.60;100320.00;;;;2076357;28;20708;-63
2024/02/13 01:02:35;;;;;;;2.43;1.30;;;;;17.60;100323.00;;;;2068359;28;20606;-59
2024/02/13 01:03:36;;;;;;;2.13;1.07;;;;;17.60;100325.00;;;;2076388;28;20226;-57
2024/02/13 01:04:36;;;;;;;4.27;1.33;;;;;17.60;100325.00;;;;2058597;28;20336;-63
2024/02/13 01:05:40;;;;;;;3.47;1.67;;;;;17.60;100321.00;;;;2064112;28;20224;-61
2024/02/13 01:06:41;;;;;;;2.92;1.60;;;;;17.60;100384.00;;;;2074432;28;20217;-56
2024/02/13 01:07:41;;;;;;;2.20;1.20;;;;;17.60;100322.00;;;;2070193;28;20586;-62
2024/02/13 01:08:43;;;;;;;3.13;1.67;;;;;17.60;100332.00;;;;2069533;28;20637;-59
2024/02/13 01:09:44;;;;;;;2.40;1.17;;;;;17.60;100316.00;;;;2056271;28;20222;-57
2024/02/13 01:10:44;;;;;;;2.60;1.30;;;;;17.60;100326.00;;;;2063255;28;20571;-60
2024/02/13 01:11:44;;;;;;;2.60;1.37;;;;;17.60;100322.00;;;;2070878;28;20295;-59
2024/02/13 01:12:46;;;;;;;2.73;1.17;;;;;17.50;100324.00;;;;2062797;28;20212;-58
2024/02/13 01:13:46;;;;;;;2.00;1.05;;;;;17.60;100331.00;;;;2069366;28;20216;-62
2024/02/13 01:14:46;;;;;;;3.10;1.47;;;;;17.60;100335.00;;;;2059575;28;20247;-57
2024/02/13 01:15:47;;;;;;;4.07;1.50;;;;;17.60;100326.00;;;;2068872;28;20221;-62
2024/02/13 01:16:47;;;;;;;2.63;1.53;;;;;17.50;100337.00;;;;2062959;28;25309;-60
2024/02/13 01:17:47;;;;;;;3.23;1.40;;;;;17.50;100338.00;;;;2058902;28;20207;-58
2024/02/13 01:18:51;;;;;;;4.30;1.50;;;;;17.50;100342.00;;;;2069144;28;20220;-60
2024/02/13 01:19:51;;;;;;;3.35;1.73;;;;;17.50;100337.00;;;;2055642;28;20255;-58
2024/02/13 01:20:52;;;;;;;4.50;1.70;;;;;17.50;100340.00;;;;2066705;28;20221;-63
2024/02/13 01:21:52;;;;;;;3.00;1.40;;;;;17.50;100348.00;;;;2064250;28;20276;-59
2024/02/13 01:22:55;;;;;;;3.50;1.50;;;;;17.50;100341.00;;;;2063400;28;20216;-58
2024/02/13 01:23:55;;;;;;;4.05;1.60;;;;;17.50;100341.00;;;;2064927;28;20228;-57
2024/02/13 01:24:56;;;;;;;2.80;1.50;;;;;17.50;100342.00;;;;2058364;28;20260;-57
2024/02/13 01:25:56;;;;;;;2.30;1.60;;;;;17.60;100347.00;;;;2072720;28;20255;-60
2024/02/13 01:26:57;;;;;;;2.57;1.37;;;;;17.60;100344.00;;;;2067461;28;20485;-59
2024/02/13 01:27:57;;;;;;;3.33;1.50;;;;;17.60;100343.00;;;;2073335;28;20220;-57
2024/02/13 01:28:59;;;;;;;3.33;1.57;;;;;17.60;100340.00;;;;2065901;28;20925;-55
2024/02/13 01:29:59;;;;;;;2.53;1.55;;;;;17.60;100352.00;;;;2039346;28;20233;-57
2024/02/13 01:31:02;;;;;;;3.07;1.63;;;;;17.60;100363.00;;;;2047883;28;20573;-59
2024/02/13 01:32:05;;;;;;;4.53;1.50;;;;;17.50;100353.00;;;;2056490;28;20353;-59
2024/02/13 01:33:05;;;;;;;2.90;1.40;;;;;17.50;100367.00;;;;2051892;28;20408;-58
2024/02/13 01:34:07;;;;;;;3.40;1.30;;;;;17.60;100358.00;;;;2057735;28;20802;-59
2024/02/13 01:35:08;;;;;;;2.67;1.50;;;;;17.50;100365.00;;;;2063993;28;20224;-58
2024/02/13 01:36:09;;;;;;;2.97;1.50;;;;;17.50;100366.00;;;;2061332;28;20216;-58
2024/02/13 01:37:10;;;;;;;3.05;1.67;;;;;17.50;100358.00;;;;2054034;28;20214;-57
2024/02/13 01:38:11;;;;;;;3.03;1.50;;;;;17.50;100361.00;;;;2066046;28;20294;-59
2024/02/13 01:39:11;;;;;;;2.70;1.40;;;;;17.50;100366.00;;;;2060459;28;20272;-56
2024/02/13 01:40:12;;;;;;;3.17;1.37;;;;;17.50;100360.00;;;;2050592;28;20679;-60
2024/02/13 01:41:12;;;;;;;4.00;1.33;;;;;17.50;100375.00;;;;2052190;28;20228;-57
2024/02/13 01:42:13;;;;;;;4.60;1.70;;;;;17.50;100370.00;;;;2058670;28;20217;-64
2024/02/13 01:43:14;;;;;;;3.27;1.60;;;;;17.50;100370.00;;;;2065911;28;20216;-60
2024/02/13 01:44:14;;;;;;;3.78;1.50;;;;;17.50;100371.00;;;;2067388;28;20231;-55
2024/02/13 01:45:15;;;;;;;2.40;1.40;;;;;17.50;100364.00;;;;2064217;28;21012;-56
2024/02/13 01:46:16;;;;;;;3.03;2.03;;;;;17.50;100366.00;;;;2062487;28;20232;-57
2024/02/13 01:47:17;;;;;;;2.73;1.47;;;;;17.50;100370.00;;;;2058994;28;20299;-62
2024/02/13 01:48:17;;;;;;;2.80;1.40;;;;;17.50;100371.00;;;;2053097;28;20720;-62
2024/02/13 01:49:19;;;;;;;2.53;1.17;;;;;17.50;100366.00;;;;2066102;28;20498;-58
2024/02/13 01:50:20;;;;;;;3.20;1.70;;;;;17.40;100369.00;;;;2052492;28;20280;-59
2024/02/13 01:51:20;;;;;;;3.17;1.80;;;;;17.50;100363.00;;;;2051524;28;20300;-55
2024/02/13 01:52:21;;;;;;;2.80;1.30;;;;;17.50;100365.00;;;;2050930;28;20212;-57
2024/02/13 01:53:21;;;;;;;2.93;1.50;;;;;17.50;100373.00;;;;2043126;28;20218;-55
2024/02/13 01:54:25;;;;;;;3.73;2.40;;;;;17.50;100353.00;;;;2052092;28;20229;-63
2024/02/13 01:55:25;;;;;;;2.85;1.50;;;;;17.50;100380.00;;;;2046098;28;20280;-57
2024/02/13 01:56:28;;;;;;;3.93;1.63;;;;;17.50;100337.00;;;;2067669;28;20319;-56
2024/02/13 01:57:29;;;;;;;3.25;1.63;;;;;17.50;100385.00;;;;2052013;28;20946;-59
2024/02/13 01:58:30;;;;;;;4.80;1.50;;;;;17.50;100381.00;;;;2044942;28;20341;-61
2024/02/13 01:59:31;;;;;;;3.33;1.60;;;;;17.50;100334.00;;;;2049547;28;20685;-58
2024/02/13 02:00:32;;;;;;;2.53;1.60;;;;;17.50;100376.00;;;;2052962;28;20225;-63
2024/02/13 02:01:32;;;;;;;3.70;1.40;;;;;17.50;100352.00;;;;2060793;28;20597;-61
2024/02/13 02:02:33;;;;;;;4.77;1.77;;;;;17.50;100370.00;;;;2049628;28;20224;-57
2024/02/13 02:03:34;;;;;;;3.07;1.77;;;;;17.50;100380.00;;;;2051269;28;20297;-57
2024/02/13 02:04:35;;;;;;;3.58;1.60;;;;;17.50;100381.00;;;;2048312;28;20239;-58
2024/02/13 02:05:36;;;;;;;4.07;1.70;;;;;17.50;100372.00;;;;2068797;28;20858;-59
2024/02/13 02:06:36;;;;;;;3.33;1.80;;;;;17.50;100365.00;;;;2074720;28;20214;-61
2024/02/13 02:07:40;;;;;;;3.00;1.33;;;;;17.50;100369.00;;;;2050594;28;20308;-58
2024/02/13 02:08:40;;;;;;;2.97;1.80;;;;;17.50;100375.00;;;;2052937;28;20937;-56
2024/02/13 02:09:42;;;;;;;2.43;1.23;;;;;17.50;100374.00;;;;2038867;28;20337;-62
2024/02/13 02:10:45;;;;;;;3.88;1.52;;;;;17.50;100367.00;;;;2059404;28;20353;-56
2024/02/13 02:11:46;;;;;;;4.18;1.65;;;;;17.50;100373.00;;;;2063812;28;20212;-56
2024/02/13 02:12:49;;;;;;;3.05;1.38;;;;;17.50;100375.00;;;;2053966;28;20218;-59
2024/02/13 02:13:52;;;;;;;3.35;1.60;;;;;17.50;100374.00;;;;2058765;28;20697;-57
2024/02/13 02:14:52;;;;;;;3.95;1.80;;;;;17.50;100366.00;;;;2053725;28;20235;-64
2024/02/13 02:15:56;;;;;;;4.60;1.73;;;;;17.50;100366.00;;;;2062931;28;20240;-62
2024/02/13 02:17:08;;;;;;;3.45;1.42;;;;;17.40;100375.00;;;;2054504;28;20975;-60
2024/02/13 02:18:10;;;;;;;3.30;1.95;;;;;17.50;100380.00;;;;2069085;28;20950;-58
2024/02/13 02:19:10;;;;;;;4.20;1.73;;;;;17.50;100368.00;;;;2067489;28;20231;-60
2024/02/13 02:20:10;;;;;;;2.97;1.50;;;;;17.50;100371.00;;;;2056543;28;20584;-59
2024/02/13 02:21:11;;;;;;;2.23;1.43;;;;;17.50;100376.00;;;;2071151;28;20215;-64
2024/02/13 02:22:12;;;;;;;2.60;1.43;;;;;17.50;100370.00;;;;2066233;28;20232;-64
2024/02/13 02:23:13;;;;;;;3.10;1.40;;;;;17.50;100189.00;;;;2069034;28;20965;-58
2024/02/13 02:24:13;;;;;;;3.30;1.85;;;;;17.50;100370.00;;;;2061540;28;20212;-60
2024/02/13 02:25:18;;;;;;;3.57;2.20;;;;;17.40;100371.00;;;;2054416;28;20211;-57
2024/02/13 02:26:19;;;;;;;2.83;1.38;;;;;16.40;100371.00;;;;2068114;28;20584;-59
2024/02/13 02:27:19;;;;;;;3.53;1.90;;;;;17.50;100371.00;;;;2067753;28;20214;-63
2024/02/13 02:28:19;;;;;;;2.90;1.60;;;;;17.40;100370.00;;;;2066915;28;20202;-59
2024/02/13 02:29:20;;;;;;;2.83;1.70;;;;;17.40;100376.00;;;;2057042;28;20232;-57
2024/02/13 02:30:20;;;;;;;3.73;1.47;;;;;17.40;100380.00;;;;2055086;28;20216;-58
2024/02/13 02:31:21;;;;;;;2.87;1.63;;;;;17.40;100369.00;;;;2053746;28;20217;-55
2024/02/13 02:32:23;;;;;;;3.57;1.70;;;;;17.40;100379.00;;;;2058788;28;20251;-55
2024/02/13 02:33:23;;;;;;;2.67;1.45;;;;;17.50;100385.00;;;;2064421;28;20215;-63
2024/02/13 02:34:24;;;;;;;3.30;1.90;;;;;17.50;100384.00;;;;2074433;28;20315;-59
2024/02/13 02:35:24;;;;;;;2.63;1.30;;;;;17.40;100401.00;;;;2063388;28;20690;-58
2024/02/13 02:36:24;;;;;;;2.40;1.30;;;;;17.40;100390.00;;;;2074752;28;20700;-57
2024/02/13 02:37:25;;;;;;;3.93;1.93;;;;;17.40;100381.00;;;;2075849;28;21057;-56
2024/02/13 02:38:25;;;;;;;3.80;1.60;;;;;17.40;100383.00;;;;2068043;28;20727;-57
2024/02/13 02:39:26;;;;;;;3.30;1.50;;;;;17.40;100390.00;;;;2068681;28;20293;-64
2024/02/13 02:40:26;;;;;;;2.50;1.50;;;;;17.40;100387.00;;;;2048049;28;20217;-62
2024/02/13 02:41:26;;;;;;;2.30;1.23;;;;;17.40;100384.00;;;;2066413;28;20233;-61
2024/02/13 02:42:27;;;;;;;4.03;1.90;;;;;17.40;100382.00;;;;2068632;28;20745;-59
2024/02/13 02:43:27;;;;;;;3.90;1.60;;;;;17.40;100394.00;;;;2058969;28;20722;-58
2024/02/13 02:44:27;;;;;;;3.07;1.70;;;;;17.30;100389.00;;;;2066485;28;20223;-56
2024/02/13 02:45:28;;;;;;;3.07;1.80;;;;;17.40;100387.00;;;;2044885;28;20586;-57
2024/02/13 02:46:28;;;;;;;3.37;1.50;;;;;17.50;100396.00;;;;2064622;28;20228;-63
2024/02/13 02:47:29;;;;;;;2.40;1.57;;;;;17.50;100391.00;;;;2059931;28;20299;-60
2024/02/13 02:48:29;;;;;;;3.00;1.63;;;;;17.40;100396.00;;;;2067370;28;20755;-58
2024/02/13 02:49:29;;;;;;;2.57;1.47;;;;;17.40;100402.00;;;;2060599;28;20291;-59
2024/02/13 02:50:30;;;;;;;3.80;1.67;;;;;17.40;100403.00;;;;2061894;28;20279;-56
2024/02/13 02:51:30;;;;;;;2.50;1.40;;;;;17.50;100397.00;;;;2057822;28;20220;-56
2024/02/13 02:52:30;;;;;;;2.97;1.53;;;;;17.40;100397.00;;;;2054047;28;20221;-63
2024/02/13 02:53:31;;;;;;;3.20;1.90;;;;;17.40;100396.00;;;;2067216;28;20254;-59
2024/02/13 02:54:31;;;;;;;3.37;1.70;;;;;17.40;100397.00;;;;2057115;28;20281;-58
2024/02/13 02:55:31;;;;;;;4.47;2.00;;;;;17.40;100476.00;;;;2068460;28;20587;-58
2024/02/13 02:56:32;;;;;;;3.07;1.90;;;;;17.40;100407.00;;;;2058889;28;21007;-61
2024/02/13 02:57:33;;;;;;;3.03;1.77;;;;;17.40;100403.00;;;;2045916;28;20226;-56
2024/02/13 02:58:34;;;;;;;3.17;1.90;;;;;17.40;100402.00;;;;2044567;28;20731;-56
2024/02/13 02:59:34;;;;;;;5.40;1.70;;;;;17.40;100402.00;;;;2053767;28;20233;-57
2024/02/13 03:00:35;;;;;;;3.03;1.83;;;;;16.80;100402.00;;;;2068356;28;20332;-56
2024/02/13 03:01:36;;;;;;;2.97;1.60;;;;;17.40;100395.00;;;;2069066;28;20225;-61
2024/02/13 03:02:37;;;;;;;3.38;1.83;;;;;17.40;100398.00;;;;2067908;28;20236;-63
2024/02/13 03:03:38;;;;;;;3.30;1.70;;;;;17.40;100410.00;;;;2060374;28;20217;-58
2024/02/13 03:04:38;;;;;;;4.80;1.90;;;;;17.40;100408.00;;;;2044065;28;20576;-58
2024/02/13 03:05:38;;;;;;;3.67;1.80;;;;;17.40;100403.00;;;;2076621;28;20219;-58
2024/02/13 03:06:40;;;;;;;3.37;1.80;;;;;17.40;100408.00;;;;2070987;28;20216;-60
2024/02/13 03:07:40;;;;;;;2.40;1.27;;;;;17.40;100409.00;;;;2068690;28;20211;-59
2024/02/13 03:08:41;;;;;;;2.47;1.70;;;;;17.40;100402.00;;;;2068275;28;20290;-56
2024/02/13 03:09:41;;;;;;;3.30;1.50;;;;;17.40;100404.00;;;;2052254;28;20208;-64
2024/02/13 03:10:42;;;;;;;3.80;1.57;;;;;17.40;100408.00;;;;2076165;28;20215;-62
2024/02/13 03:11:42;;;;;;;4.00;2.00;;;;;17.40;100401.00;;;;2066599;28;20210;-61
2024/02/13 03:12:43;;;;;;;4.20;2.13;;;;;17.40;100414.00;;;;2069026;28;20230;-60
2024/02/13 03:13:44;;;;;;;3.92;1.60;;;;;17.40;100412.00;;;;2065329;28;20204;-60
2024/02/13 03:14:44;;;;;;;3.00;1.63;;;;;17.40;100409.00;;;;2059774;28;20217;-57
2024/02/13 03:15:45;;;;;;;2.80;2.00;;;;;17.40;100418.00;;;;2075611;28;20291;-57
2024/02/13 03:16:47;;;;;;;3.10;1.67;;;;;17.40;100406.00;;;;2061977;28;20756;-58
2024/02/13 03:17:48;;;;;;;3.72;1.80;;;;;17.40;100402.00;;;;2066760;28;20221;-58
2024/02/13 03:18:48;;;;;;;2.70;1.57;;;;;17.40;100413.00;;;;2061007;28;20217;-60
2024/02/13 03:19:48;;;;;;;4.13;1.60;;;;;17.40;100404.00;;;;2057145;28;20228;-57
2024/02/13 03:20:49;;;;;;;3.40;1.70;;;;;17.40;100409.00;;;;2064836;28;20214;-60
2024/02/13 03:21:49;;;;;;;2.40;1.70;;;;;17.40;100414.00;;;;2063933;28;20885;-59
2024/02/13 03:22:49;;;;;;;4.20;2.07;;;;;17.40;100415.00;;;;2075240;28;20695;-57
2024/02/13 03:23:50;;;;;;;2.33;1.57;;;;;17.40;100415.00;;;;2063950;28;20763;-57
2024/02/13 03:24:50;;;;;;;3.40;1.90;;;;;17.40;100414.00;;;;2064924;28;20222;-60
2024/02/13 03:25:50;;;;;;;4.70;1.83;;;;;17.40;100414.00;;;;2067926;28;20220;-58
2024/02/13 03:26:51;;;;;;;3.30;1.60;;;;;17.40;100414.00;;;;2073683;28;20212;-60
2024/02/13 03:27:52;;;;;;;3.03;1.70;;;;;17.40;100415.00;;;;2073804;28;20306;-57
2024/02/13 03:28:52;;;;;;;3.03;1.90;;;;;17.40;100400.00;;;;2064580;28;20228;-63
2024/02/13 03:29:52;;;;;;;3.10;2.13;;;;;17.40;100410.00;;;;2053685;28;20256;-59
2024/02/13 03:30:54;;;;;;;6.43;2.00;;;;;17.40;100417.00;;;;2056953;28;20205;-57
2024/02/13 03:31:54;;;;;;;3.60;1.65;;;;;17.40;100414.00;;;;2074927;28;20212;-56
2024/02/13 03:32:54;;;;;;;6.77;1.90;;;;;17.40;100416.00;;;;2066726;28;20583;-63
2024/02/13 03:33:55;;;;;;;3.63;1.80;;;;;17.40;100412.00;;;;2068906;28;20214;-60
2024/02/13 03:34:55;;;;;;;2.77;1.97;;;;;17.30;100409.00;;;;2059199;28;20227;-61
2024/02/13 03:35:56;;;;;;;3.30;1.70;;;;;17.40;100468.00;;;;2070705;28;20220;-56
2024/02/13 03:36:56;;;;;;;4.03;1.83;;;;;17.40;100417.00;;;;2075784;28;20618;-60
2024/02/13 03:37:57;;;;;;;2.40;1.67;;;;;17.40;100415.00;;;;2066907;28;20234;-64
2024/02/13 03:38:59;;;;;;;3.43;1.90;;;;;17.40;100417.00;;;;2068463;28;20218;-59
2024/02/13 03:39:59;;;;;;;2.67;1.90;;;;;17.40;100421.00;;;;2056196;28;20215;-57
2024/02/13 03:41:00;;;;;;;2.90;1.73;;;;;17.40;100417.00;;;;2062235;28;20247;-56
2024/02/13 03:42:02;;;;;;;3.50;1.57;;;;;17.40;100412.00;;;;2069450;28;20292;-57
2024/02/13 03:43:02;;;;;;;3.33;1.90;;;;;17.40;100416.00;;;;2065304;28;20234;-57
2024/02/13 03:44:05;;;;;;;3.07;1.73;;;;;17.40;100416.00;;;;2066426;28;20228;-56
2024/02/13 03:45:06;;;;;;;2.70;1.70;;;;;17.40;100413.00;;;;2060341;28;21140;-60
2024/02/13 03:46:07;;;;;;;3.10;1.83;;;;;17.40;100411.00;;;;2072888;28;20228;-61
2024/02/13 03:47:07;;;;;;;3.50;2.20;;;;;17.40;100410.00;;;;2064467;28;20280;-64
2024/02/13 03:48:07;;;;;;;4.00;2.20;;;;;17.40;100415.00;;;;2064107;28;20223;-60
2024/02/13 03:49:11;;;;;;;2.47;1.77;;;;;17.30;100410.00;;;;2068897;28;20224;-58
2024/02/13 03:50:12;;;;;;;2.78;1.75;;;;;17.40;100412.00;;;;2036854;28;20655;-62
2024/02/13 03:51:13;;;;;;;2.70;1.70;;;;;17.30;100407.00;;;;2057081;28;20284;-59
2024/02/13 03:52:13;;;;;;;3.53;1.83;;;;;17.40;100409.00;;;;2066977;28;20239;-58
2024/02/13 03:53:13;;;;;;;2.93;1.73;;;;;17.30;100404.00;;;;2065159;28;20239;-63
2024/02/13 03:54:14;;;;;;;3.10;2.10;;;;;17.40;100404.00;;;;2066614;28;20216;-61
2024/02/13 03:55:14;;;;;;;2.40;1.60;;;;;17.30;100411.00;;;;2059827;28;20289;-58
2024/02/13 03:56:15;;;;;;;2.97;1.67;;;;;17.30;100406.00;;;;2074797;28;20249;-55
2024/02/13 03:57:15;;;;;;;3.70;2.17;;;;;17.30;100402.00;;;;2070249;28;20839;-55
2024/02/13 03:58:15;;;;;;;3.80;1.70;;;;;17.30;100405.00;;;;2073604;28;20255;-56
2024/02/13 03:59:16;;;;;;;2.70;1.80;;;;;17.30;100470.00;;;;2065244;28;20219;-55
2024/02/13 04:00:17;;;;;;;3.00;1.77;;;;;17.30;100410.00;;;;2057084;28;20226;-61
2024/02/13 04:01:17;;;;;;;3.20;1.80;;;;;17.30;100422.00;;;;2060320;28;20460;-58
2024/02/13 04:02:18;;;;;;;3.70;1.80;;;;;17.30;100420.00;;;;2061502;28;20459;-56
2024/02/13 04:03:18;;;;;;;3.60;2.17;;;;;17.40;100418.00;;;;2069730;28;20219;-61
2024/02/13 04:04:19;;;;;;;3.53;1.80;;;;;17.30;100419.00;;;;2063820;28;20248;-60
2024/02/13 04:05:20;;;;;;;2.72;1.52;;;;;17.30;100419.00;;;;2057230;28;20220;-57
2024/02/13 04:06:21;;;;;;;2.90;1.87;;;;;17.40;100417.00;;;;2067387;28;20733;-57
2024/02/13 04:07:22;;;;;;;3.67;2.00;;;;;17.40;100419.00;;;;2066167;28;20222;-57
2024/02/13 04:08:22;;;;;;;3.47;1.40;;;;;17.40;100421.00;;;;2069416;28;20230;-58
2024/02/13 04:09:22;;;;;;;3.43;2.10;;;;;17.40;100417.00;;;;2072788;28;20216;-57
2024/02/13 04:10:23;;;;;;;3.73;2.80;;;;;17.40;100418.00;;;;2059753;28;20670;-57
2024/02/13 04:11:24;;;;;;;2.70;1.65;;;;;17.40;100415.00;;;;2064000;28;20303;-58
2024/02/13 04:12:24;;;;;;;2.60;1.60;;;;;17.30;100432.00;;;;2067607;28;20698;-57
2024/02/13 04:13:25;;;;;;;3.60;1.80;;;;;17.30;100425.00;;;;2062314;28;21066;-57
2024/02/13 04:14:27;;;;;;;2.70;1.60;;;;;17.30;100416.00;;;;2073618;28;21054;-58
2024/02/13 04:15:27;;;;;;;4.57;2.40;;;;;17.30;100420.00;;;;2061149;28;20227;-57
2024/02/13 04:16:27;;;;;;;3.07;2.00;;;;;17.30;100417.00;;;;2072833;28;20758;-57
2024/02/13 04:17:28;;;;;;;4.37;2.40;;;;;17.30;100420.00;;;;2077489;28;20291;-57
2024/02/13 04:18:28;;;;;;;3.87;2.20;;;;;17.30;100422.00;;;;2055117;28;20228;-58
2024/02/13 04:19:29;;;;;;;2.53;1.73;;;;;17.30;100425.00;;;;2051881;28;20543;-57
2024/02/13 04:20:29;;;;;;;2.93;1.70;;;;;17.30;100416.00;;;;2055412;28;20214;-57
2024/02/13 04:21:30;;;;;;;3.73;1.93;;;;;17.30;100407.00;;;;2059661;28;20226;-57
2024/02/13 04:22:30;;;;;;;2.50;1.73;;;;;17.30;100417.00;;;;2069881;28;20223;-57
2024/02/13 04:23:32;;;;;;;3.10;1.90;;;;;17.30;100420.00;;;;2061505;28;20233;-58
2024/02/13 04:24:32;;;;;;;3.50;2.03;;;;;17.30;100418.00;;;;2058220;28;20239;-57
2024/02/13 04:25:32;;;;;;;2.70;1.80;;;;;17.30;100424.00;;;;2065822;28;20341;-57
2024/02/13 04:26:33;;;;;;;3.10;1.90;;;;;17.30;100463.00;;;;2064814;28;20221;-58
2024/02/13 04:27:35;;;;;;;3.33;1.83;;;;;17.30;100428.00;;;;2065177;28;20220;-57
2024/02/13 04:28:36;;;;;;;3.75;2.25;;;;;17.30;100425.00;;;;2068405;28;20337;-57
2024/02/13 04:29:36;;;;;;;3.43;2.10;;;;;17.30;100423.00;;;;2059849;28;20369;-58
2024/02/13 04:30:40;;;;;;;3.17;2.23;;;;;17.30;100425.00;;;;2060785;28;20717;-57
2024/02/13 04:31:42;;;;;;;3.17;1.83;;;;;17.30;100425.00;;;;2061372;28;20299;-58
2024/02/13 04:32:43;;;;;;;2.95;1.90;;;;;17.30;100420.00;;;;2068599;28;20317;-57
2024/02/13 04:33:43;;;;;;;2.80;1.80;;;;;17.30;100427.00;;;;2070018;28;20334;-57
2024/02/13 04:34:43;;;;;;;3.80;2.03;;;;;17.30;100426.00;;;;2064458;28;20306;-57
2024/02/13 04:35:44;;;;;;;2.60;1.70;;;;;17.30;100431.00;;;;2069759;28;20224;-57
2024/02/13 04:36:44;;;;;;;6.10;2.70;;;;;17.30;100427.00;;;;2076419;28;20219;-58
2024/02/13 04:37:44;;;;;;;2.90;1.80;;;;;17.30;100426.00;;;;2062609;28;20221;-58
2024/02/13 04:38:45;;;;;;;4.03;2.27;;;;;17.30;100429.00;;;;2061477;28;20212;-57
2024/02/13 04:39:45;;;;;;;4.10;2.07;;;;;17.30;100428.00;;;;2049017;28;20221;-57
2024/02/13 04:40:46;;;;;;;4.17;1.77;;;;;17.30;100433.00;;;;2071515;28;20229;-57
2024/02/13 04:41:46;;;;;;;2.77;1.80;;;;;17.30;100424.00;;;;2074817;28;20233;-57
2024/02/13 04:42:48;;;;;;;3.30;1.80;;;;;17.30;100436.00;;;;2068817;28;20220;-57
2024/02/13 04:43:49;;;;;;;2.75;1.95;;;;;17.30;100461.00;;;;2068669;28;20208;-58
2024/02/13 04:44:50;;;;;;;4.03;2.25;;;;;17.30;100432.00;;;;2053983;28;20287;-58
2024/02/13 04:45:50;;;;;;;3.43;1.97;;;;;17.30;100435.00;;;;2067483;28;20221;-57
2024/02/13 04:46:50;;;;;;;2.90;2.10;;;;;17.30;100435.00;;;;2066206;28;20344;-57
2024/02/13 04:47:51;;;;;;;2.90;1.87;;;;;17.30;100425.00;;;;2076909;28;20244;-57
2024/02/13 04:48:52;;;;;;;4.70;2.00;;;;;17.30;100425.00;;;;2069208;28;20240;-57
2024/02/13 04:49:52;;;;;;;3.60;2.10;;;;;17.30;100425.00;;;;2053018;28;20405;-57
2024/02/13 04:50:52;;;;;;;3.03;1.90;;;;;17.30;100423.00;;;;2076961;28;20211;-57
2024/02/13 04:51:53;;;;;;;2.90;1.73;;;;;17.30;100421.00;;;;2066100;28;20228;-57
2024/02/13 04:52:55;;;;;;;3.27;2.10;;;;;17.30;100434.00;;;;2069525;28;20219;-57
2024/02/13 04:53:55;;;;;;;3.35;1.77;;;;;17.30;100428.00;;;;2068760;28;20286;-57
2024/02/13 04:54:58;;;;;;;4.40;2.63;;;;;17.30;100434.00;;;;2052872;28;20274;-57
2024/02/13 04:55:59;;;;;;;4.22;2.33;;;;;17.30;100433.00;;;;2071045;28;20208;-57
2024/02/13 04:56:59;;;;;;;3.50;1.90;;;;;17.30;100439.00;;;;2063996;28;20283;-57
2024/02/13 04:58:01;;;;;;;3.50;1.93;;;;;17.30;100429.00;;;;2068271;28;20203;-57
2024/02/13 04:59:02;;;;;;;4.05;1.90;;;;;17.30;100431.00;;;;2069644;28;20307;-58
2024/02/13 05:00:14;;;;;;;4.83;2.90;;;;;17.30;100431.00;;;;2064610;28;20228;-58
2024/02/13 05:01:14;;;;;;;3.38;2.22;;;;;17.30;100438.00;;;;2069571;28;20509;-57